createdAt,value
2018-12-06T00:01:38.971Z,85.95
2018-12-06T00:04:10.351Z,86.08
2018-12-06T00:06:37.773Z,85.50
2018-12-06T00:09:05.300Z,85.84
2018-12-06T00:11:47.310Z,85.70
2018-12-06T00:14:14.878Z,86.06
2018-12-06T00:16:42.385Z,86.27
2018-12-06T00:19:09.994Z,86.04
2018-12-06T00:21:37.413Z,85.88
2018-12-06T00:24:04.846Z,86.06
2018-12-06T00:26:32.281Z,86.22
2018-12-06T00:29:06.524Z,85.93
2018-12-06T00:31:34.090Z,85.96
2018-12-06T00:34:01.534Z,86.12
2018-12-06T00:36:28.950Z,85.82
2018-12-06T00:38:56.360Z,86.06
2018-12-06T00:41:23.810Z,85.77
2018-12-06T00:43:51.255Z,86.12
2018-12-06T00:46:18.697Z,86.22
2018-12-06T00:48:51.802Z,85.90
2018-12-06T00:51:19.249Z,86.14
2018-12-06T00:53:46.698Z,86.11
2018-12-06T00:56:14.139Z,86.16
2018-12-06T00:58:41.570Z,86.22
2018-12-06T01:01:09.042Z,86.18
2018-12-06T01:03:36.553Z,86.05
2018-12-06T01:06:03.979Z,86.42
2018-12-06T01:08:31.399Z,86.08
2018-12-06T01:10:58.830Z,86.21
2018-12-06T01:13:26.264Z,86.34
2018-12-06T01:15:58.717Z,86.39
2018-12-06T01:18:31.080Z,86.26
2018-12-06T01:20:58.545Z,86.89
2018-12-06T01:23:34.036Z,86.36
2018-12-06T01:26:01.471Z,86.76
2018-12-06T01:28:28.891Z,86.50
2018-12-06T01:30:56.319Z,86.58
2018-12-06T01:33:23.885Z,86.30
2018-12-06T01:35:55.373Z,86.56
2018-12-06T01:38:22.805Z,86.87
2018-12-06T01:40:50.373Z,86.21
2018-12-06T01:43:17.815Z,86.51
2018-12-06T01:45:45.213Z,86.19
2018-12-06T01:48:12.739Z,86.60
2018-12-06T01:50:40.218Z,86.49
2018-12-06T01:53:07.664Z,86.24
2018-12-06T01:55:35.093Z,86.64
2018-12-06T01:58:07.366Z,86.72
2018-12-06T02:00:34.766Z,86.44
2018-12-06T02:03:02.223Z,86.56
2018-12-06T02:05:29.641Z,87.00
2018-12-06T02:07:57.172Z,87.16
2018-12-06T02:10:24.649Z,87.33
2018-12-06T02:12:52.082Z,87.09
2018-12-06T02:15:19.502Z,87.47
2018-12-06T02:17:46.928Z,87.78
2018-12-06T02:20:19.304Z,87.92
2018-12-06T02:22:46.764Z,88.00
2018-12-06T02:25:14.230Z,88.23
2018-12-06T02:27:41.832Z,88.31
2018-12-06T02:30:09.352Z,88.43
2018-12-06T02:32:36.896Z,88.69
2018-12-06T02:37:37.188Z,88.81
2018-12-06T02:40:06.389Z,89.22
2018-12-06T02:42:33.907Z,88.94
2018-12-06T02:45:01.370Z,89.56
2018-12-06T02:47:35.676Z,89.47
2018-12-06T02:50:08.665Z,89.65
2018-12-06T02:52:36.114Z,89.75
2018-12-06T02:57:42.050Z,90.03
2018-12-06T03:00:09.651Z,90.28
2018-12-06T03:02:37.063Z,90.30
2018-12-06T03:05:04.778Z,90.48
2018-12-06T03:07:32.303Z,90.40
2018-12-06T03:09:59.921Z,90.33
2018-12-06T03:12:27.353Z,90.42
2018-12-06T03:14:54.897Z,90.47
2018-12-06T03:17:22.335Z,90.60
2018-12-06T03:19:50.602Z,90.79
2018-12-06T03:22:18.033Z,90.93
2018-12-06T03:24:45.891Z,90.71
2018-12-06T03:27:13.324Z,90.91
2018-12-06T03:32:42.001Z,90.54
2018-12-06T03:35:09.428Z,90.73
2018-12-06T03:37:36.969Z,90.65
2018-12-06T03:40:05.747Z,90.88
2018-12-06T03:45:25.442Z,91.23
2018-12-06T03:47:52.876Z,90.98
2018-12-06T03:50:20.602Z,91.19
2018-12-06T03:52:48.035Z,91.21
2018-12-06T03:55:15.455Z,90.86
2018-12-06T03:57:42.894Z,91.04
2018-12-06T04:00:10.476Z,90.86
2018-12-06T04:05:36.913Z,91.18
2018-12-06T04:08:04.452Z,90.82
2018-12-06T04:10:32.018Z,91.02
2018-12-06T04:13:05.570Z,91.16
2018-12-06T04:15:38.459Z,90.71
2018-12-06T04:18:05.907Z,90.95
2018-12-06T04:20:34.239Z,90.93
2018-12-06T04:23:01.658Z,91.34
2018-12-06T04:25:29.233Z,90.92
2018-12-06T04:27:56.683Z,91.34
2018-12-06T04:30:24.111Z,90.82
2018-12-06T04:32:51.928Z,91.19
2018-12-06T04:35:19.403Z,91.28
2018-12-06T04:37:46.991Z,91.27
2018-12-06T04:40:14.452Z,90.94
2018-12-06T04:42:41.863Z,91.01
2018-12-06T04:45:10.547Z,91.02
2018-12-06T04:47:38.247Z,90.96
2018-12-06T04:50:06.790Z,90.68
2018-12-06T04:52:34.206Z,90.89
2018-12-06T04:55:06.403Z,91.15
2018-12-06T04:57:33.810Z,91.26
2018-12-06T05:00:01.351Z,91.67
2018-12-06T05:02:35.350Z,91.84
2018-12-06T05:05:03.105Z,92.21
2018-12-06T05:07:30.517Z,92.34
2018-12-06T05:09:58.092Z,92.80
2018-12-06T05:12:26.496Z,92.92
2018-12-06T05:14:53.931Z,93.18
2018-12-06T05:17:24.315Z,93.57
2018-12-06T05:19:51.959Z,93.93
2018-12-06T05:22:19.563Z,93.81
2018-12-06T05:24:47.051Z,93.83
2018-12-06T05:27:14.498Z,94.10
2018-12-06T05:29:41.925Z,94.41
2018-12-06T05:34:46.328Z,94.62
2018-12-06T05:37:13.830Z,94.39
2018-12-06T05:39:41.254Z,94.58
2018-12-06T05:42:08.695Z,94.32
2018-12-06T05:44:36.116Z,94.31
2018-12-06T05:47:06.407Z,94.55
2018-12-06T05:49:33.864Z,94.71
2018-12-06T05:52:01.317Z,94.98
2018-12-06T05:54:28.759Z,94.68
2018-12-06T05:56:56.221Z,94.83
2018-12-06T05:59:23.667Z,95.09
2018-12-06T06:01:51.914Z,95.20
2018-12-06T06:04:19.365Z,95.44
2018-12-06T06:06:46.806Z,95.49
2018-12-06T06:09:14.247Z,95.64
2018-12-06T06:11:41.676Z,95.64
2018-12-06T06:14:09.124Z,95.86
2018-12-06T06:16:36.547Z,95.85
2018-12-06T06:19:04.014Z,95.83
2018-12-06T06:21:32.410Z,96.22
2018-12-06T06:23:59.855Z,95.58
2018-12-06T06:26:27.395Z,95.98
2018-12-06T06:28:54.960Z,95.99
2018-12-06T06:31:22.415Z,95.78
2018-12-06T06:33:52.403Z,96.60
2018-12-06T06:36:25.703Z,95.88
2018-12-06T06:38:53.151Z,96.05
2018-12-06T06:41:20.635Z,96.25
2018-12-06T06:43:48.264Z,96.49
2018-12-06T06:46:15.728Z,96.07
2018-12-06T06:48:47.006Z,95.93
2018-12-06T06:51:14.451Z,95.99
2018-12-06T06:53:41.940Z,95.97
2018-12-06T06:56:09.363Z,96.06
2018-12-06T06:58:36.829Z,95.98
2018-12-06T07:01:04.274Z,96.07
2018-12-06T07:03:31.939Z,95.82
2018-12-06T07:05:59.388Z,96.15
2018-12-06T07:08:26.959Z,96.05
2018-12-06T07:10:54.388Z,96.17
2018-12-06T07:13:22.138Z,95.97
2018-12-06T07:15:52.518Z,96.01
2018-12-06T07:18:20.017Z,96.06
2018-12-06T07:20:47.461Z,96.09
2018-12-06T07:23:14.883Z,95.87
2018-12-06T07:25:46.241Z,96.15
2018-12-06T07:28:12.075Z,96.25
2018-12-06T07:30:39.504Z,96.26
2018-12-06T07:33:06.948Z,95.87
2018-12-06T07:35:34.367Z,96.18
2018-12-06T07:38:01.818Z,96.15
2018-12-06T07:40:29.262Z,95.76
2018-12-06T07:43:04.823Z,95.91
2018-12-06T07:45:32.337Z,95.75
2018-12-06T07:47:59.860Z,96.21
2018-12-06T07:50:27.298Z,96.25
2018-12-06T07:52:54.740Z,95.98
2018-12-06T07:58:01.090Z,96.08
2018-12-06T08:00:32.335Z,95.97
2018-12-06T08:03:00.635Z,95.92
2018-12-06T08:08:22.128Z,95.99
2018-12-06T08:10:49.580Z,96.34
2018-12-06T08:13:18.879Z,96.14
2018-12-06T08:15:46.288Z,96.34
2018-12-06T08:18:13.737Z,96.34
2018-12-06T08:20:41.183Z,96.48
2018-12-06T08:23:08.612Z,96.30
2018-12-06T08:25:42.769Z,96.53
2018-12-06T08:28:10.257Z,96.25
2018-12-06T08:30:37.700Z,96.31
2018-12-06T08:33:05.136Z,96.13
2018-12-06T08:35:33.498Z,96.42
2018-12-06T08:38:01.205Z,96.11
2018-12-06T08:40:28.646Z,96.00
2018-12-06T08:43:00.220Z,95.96
2018-12-06T08:45:27.659Z,95.81
2018-12-06T08:47:55.165Z,95.80
2018-12-06T08:50:22.635Z,95.82
2018-12-06T08:52:50.070Z,95.90
2018-12-06T08:55:17.586Z,95.97
2018-12-06T08:57:45.029Z,96.21
2018-12-06T09:00:12.562Z,95.95
2018-12-06T09:02:40.128Z,95.78
2018-12-06T09:05:14.392Z,95.92
2018-12-06T09:07:41.835Z,95.87
2018-12-06T09:10:09.359Z,95.46
2018-12-06T09:12:39.791Z,95.55
2018-12-06T09:15:09.311Z,95.35
2018-12-06T09:17:36.772Z,95.28
2018-12-06T09:20:05.314Z,95.28
2018-12-06T09:22:32.777Z,94.93
2018-12-06T09:25:00.214Z,94.77
2018-12-06T09:27:27.679Z,94.78
2018-12-06T09:32:56.196Z,94.74
2018-12-06T09:37:57.454Z,94.49
2018-12-06T09:40:24.976Z,94.36
2018-12-06T09:42:56.349Z,93.92
2018-12-06T09:45:23.795Z,93.83
2018-12-06T09:47:55.141Z,93.44
2018-12-06T09:50:22.575Z,93.32
2018-12-06T09:52:51.932Z,93.02
2018-12-06T09:55:19.363Z,92.96
2018-12-06T09:57:46.811Z,92.84
2018-12-06T10:00:15.624Z,92.41
2018-12-06T10:02:43.118Z,92.67
2018-12-06T10:05:10.556Z,92.55
2018-12-06T10:07:38.062Z,92.15
2018-12-06T10:10:09.739Z,91.89
2018-12-06T10:12:37.214Z,91.71
2018-12-06T10:15:05.023Z,91.77
2018-12-06T10:17:32.456Z,91.63
2018-12-06T10:20:04.794Z,91.41
2018-12-06T10:22:32.321Z,91.29
2018-12-06T10:24:59.751Z,90.94
2018-12-06T10:27:27.187Z,91.08
2018-12-06T10:29:54.640Z,91.35
2018-12-06T10:32:22.059Z,91.40
2018-12-06T10:34:53.678Z,91.16
2018-12-06T10:37:21.229Z,91.31
2018-12-06T10:39:48.707Z,91.18
2018-12-06T10:42:16.115Z,91.25
2018-12-06T10:44:43.608Z,91.56
2018-12-06T10:47:11.034Z,91.58
2018-12-06T10:49:38.551Z,91.57
2018-12-06T10:52:10.933Z,91.69
2018-12-06T10:54:38.390Z,91.61
2018-12-06T10:57:05.839Z,91.98
2018-12-06T10:59:39.776Z,91.79
2018-12-06T11:05:09.372Z,91.66
2018-12-06T11:07:36.856Z,91.49
2018-12-06T11:10:10.108Z,91.44
2018-12-06T11:12:37.570Z,91.60
2018-12-06T11:15:15.066Z,90.84
2018-12-06T11:17:42.577Z,90.82
2018-12-06T11:20:12.127Z,90.70
2018-12-06T11:22:44.528Z,90.70
2018-12-06T11:25:12.086Z,90.87
2018-12-06T11:27:39.533Z,90.79
2018-12-06T11:30:08.007Z,90.49
2018-12-06T11:32:39.531Z,90.29
2018-12-06T11:35:07.012Z,90.12
2018-12-06T11:37:34.598Z,90.44
2018-12-06T11:40:02.066Z,90.21
2018-12-06T11:42:29.522Z,90.31
2018-12-06T11:44:56.955Z,90.01
2018-12-06T11:49:59.248Z,89.91
2018-12-06T11:55:25.644Z,89.65
2018-12-06T11:57:53.178Z,89.59
2018-12-06T12:00:24.706Z,89.52
2018-12-06T12:02:52.274Z,89.52
2018-12-06T12:05:19.760Z,89.21
2018-12-06T12:07:47.283Z,89.37
2018-12-06T12:10:14.730Z,89.49
2018-12-06T12:12:42.273Z,89.47
2018-12-06T12:15:09.800Z,89.64
2018-12-06T12:17:39.085Z,89.39
2018-12-06T12:20:07.176Z,89.52
2018-12-06T12:22:34.741Z,89.30
2018-12-06T12:25:12.669Z,89.14
2018-12-06T12:27:40.213Z,88.77
2018-12-06T12:30:08.651Z,88.38
2018-12-06T12:32:36.115Z,88.78
2018-12-06T12:35:03.841Z,88.35
2018-12-06T12:37:31.256Z,88.25
2018-12-06T12:39:59.652Z,88.31
2018-12-06T12:42:27.086Z,88.38
2018-12-06T12:44:54.532Z,88.01
2018-12-06T12:47:22.058Z,87.97
2018-12-06T12:49:49.564Z,87.59
2018-12-06T12:52:17.255Z,87.69
2018-12-06T12:54:44.746Z,87.27
2018-12-06T12:57:12.257Z,87.34
2018-12-06T12:59:39.720Z,87.19
2018-12-06T13:02:11.054Z,86.66
2018-12-06T13:04:40.294Z,86.98
2018-12-06T13:07:10.471Z,87.36
2018-12-06T13:12:32.063Z,87.32
2018-12-06T13:14:59.600Z,86.95
2018-12-06T13:17:28.876Z,87.12
2018-12-06T13:19:56.374Z,86.75
2018-12-06T13:22:23.812Z,86.74
2018-12-06T13:24:51.338Z,87.32
2018-12-06T13:27:18.796Z,86.44
2018-12-06T13:29:46.249Z,87.44
2018-12-06T13:32:30.701Z,87.08
2018-12-06T13:35:02.162Z,87.25
2018-12-06T13:37:29.631Z,86.99
2018-12-06T13:39:57.152Z,87.25
2018-12-06T13:42:24.774Z,87.13
2018-12-06T13:44:56.104Z,87.27
2018-12-06T13:47:23.572Z,86.99
2018-12-06T13:49:51.093Z,87.47
2018-12-06T13:52:18.519Z,87.02
2018-12-06T13:54:46.007Z,87.02
2018-12-06T13:57:13.437Z,86.75
2018-12-06T13:59:44.941Z,86.85
2018-12-06T14:02:12.467Z,86.90
2018-12-06T14:04:39.974Z,87.28
2018-12-06T14:07:16.471Z,86.74
2018-12-06T14:09:44.887Z,86.86
2018-12-06T14:12:12.341Z,86.61
2018-12-06T14:14:44.665Z,86.22
2018-12-06T14:17:12.198Z,85.93
2018-12-06T14:19:39.673Z,85.47
2018-12-06T14:22:07.244Z,85.71
2018-12-06T14:24:34.882Z,86.09
2018-12-06T14:27:05.352Z,85.81
2018-12-06T14:29:32.802Z,85.16
2018-12-06T14:32:00.309Z,85.07
2018-12-06T14:37:02.391Z,85.23
2018-12-06T14:39:30.025Z,84.44
2018-12-06T14:41:57.456Z,84.50
2018-12-06T14:44:24.899Z,84.51
2018-12-06T14:46:52.330Z,84.25
2018-12-06T14:49:19.811Z,84.17
2018-12-06T14:51:47.322Z,83.82
2018-12-06T14:54:18.860Z,83.98
2018-12-06T14:56:51.328Z,83.36
2018-12-06T14:59:18.799Z,83.75
2018-12-06T15:01:46.323Z,83.68
2018-12-06T15:04:18.730Z,83.58
2018-12-06T15:06:46.218Z,83.70
2018-12-06T15:09:14.590Z,83.45
2018-12-06T15:11:42.118Z,83.80
2018-12-06T15:14:09.567Z,83.24
2018-12-06T15:16:37.016Z,83.95
2018-12-06T15:19:04.469Z,83.74
2018-12-06T15:21:38.359Z,84.22
2018-12-06T15:24:05.783Z,83.86
2018-12-06T15:26:33.349Z,84.07
2018-12-06T15:29:00.820Z,83.91
2018-12-06T15:31:28.275Z,84.22
2018-12-06T15:33:55.785Z,84.16
2018-12-06T15:36:23.244Z,84.35
2018-12-06T15:38:50.691Z,84.48
2018-12-06T15:41:18.122Z,84.77
2018-12-06T15:43:45.590Z,84.92
2018-12-06T15:46:19.033Z,84.67
2018-12-06T15:48:48.583Z,84.63
2018-12-06T15:51:15.991Z,84.49
2018-12-06T15:53:43.581Z,84.40
2018-12-06T15:56:10.998Z,84.65
2018-12-06T15:58:38.443Z,84.25
2018-12-06T16:01:09.844Z,84.33
2018-12-06T16:03:43.001Z,84.05
2018-12-06T16:06:10.432Z,83.63
2018-12-06T16:08:37.931Z,84.05
2018-12-06T16:11:05.375Z,84.18
2018-12-06T16:13:39.277Z,84.34
2018-12-06T16:16:06.718Z,84.54
2018-12-06T16:18:34.291Z,84.56
2018-12-06T16:21:01.877Z,84.46
2018-12-06T16:23:29.337Z,84.54
2018-12-06T16:25:56.825Z,84.63
2018-12-06T16:28:24.280Z,85.29
2018-12-06T16:30:52.717Z,84.76
2018-12-06T16:33:20.160Z,84.87
2018-12-06T16:35:47.726Z,84.85
2018-12-06T16:38:15.178Z,85.30
2018-12-06T16:40:42.648Z,85.28
2018-12-06T16:43:10.079Z,84.71
2018-12-06T16:45:37.689Z,84.79
2018-12-06T16:48:05.132Z,85.70
2018-12-06T16:53:33.561Z,85.22
2018-12-06T16:56:01.023Z,85.29
2018-12-06T16:58:28.502Z,85.34
2018-12-06T17:00:55.935Z,85.27
2018-12-06T17:03:23.438Z,85.46
2018-12-06T17:05:50.909Z,85.41
2018-12-06T17:08:19.323Z,85.42
2018-12-06T17:10:46.770Z,85.71
2018-12-06T17:13:14.202Z,85.32
2018-12-06T17:15:41.643Z,86.11
2018-12-06T17:18:11.971Z,84.91
2018-12-06T17:20:39.593Z,85.01
2018-12-06T17:23:07.057Z,85.42
2018-12-06T17:25:34.490Z,85.48
2018-12-06T17:28:01.937Z,85.65
2018-12-06T17:30:33.231Z,85.81
2018-12-06T17:33:00.688Z,85.80
2018-12-06T17:35:28.148Z,85.29
2018-12-06T17:37:55.621Z,85.57
2018-12-06T17:40:23.085Z,85.57
2018-12-06T17:42:50.536Z,86.07
2018-12-06T17:45:26.622Z,85.54
2018-12-06T17:47:56.959Z,85.65
2018-12-06T17:50:24.429Z,85.62
2018-12-06T17:52:51.974Z,85.52
2018-12-06T17:55:19.456Z,85.89
2018-12-06T17:57:46.893Z,85.62
2018-12-06T18:00:14.323Z,85.61
2018-12-06T18:02:41.791Z,85.80
2018-12-06T18:05:09.444Z,85.86
2018-12-06T18:07:38.834Z,85.63
2018-12-06T18:10:06.859Z,85.03
2018-12-06T18:12:34.360Z,85.85
2018-12-06T18:15:01.783Z,85.88
2018-12-06T18:17:30.323Z,85.40
2018-12-06T18:19:57.789Z,85.21
2018-12-06T18:22:25.243Z,85.59
2018-12-06T18:24:52.685Z,85.35
2018-12-06T18:27:20.242Z,85.53
2018-12-06T18:29:47.686Z,85.83
2018-12-06T18:32:15.146Z,85.87
2018-12-06T18:34:42.627Z,85.99
2018-12-06T18:37:14.953Z,85.95
2018-12-06T18:39:42.381Z,85.78
2018-12-06T18:42:10.286Z,86.19
2018-12-06T18:44:37.759Z,86.10
2018-12-06T18:47:05.683Z,86.33
2018-12-06T18:49:33.152Z,86.50
2018-12-06T18:52:02.647Z,86.86
2018-12-06T18:54:30.142Z,86.51
2018-12-06T18:56:57.575Z,87.02
2018-12-06T18:59:25.981Z,86.96
2018-12-06T19:01:58.252Z,87.25
2018-12-06T19:04:26.636Z,87.11
2018-12-06T19:06:54.073Z,87.48
2018-12-06T19:09:21.584Z,87.29
2018-12-06T19:11:49.038Z,87.12
2018-12-06T19:14:21.754Z,87.08
2018-12-06T19:16:46.052Z,86.88
2018-12-06T19:19:13.508Z,86.98
2018-12-06T19:21:40.954Z,86.91
2018-12-06T19:24:08.410Z,86.91
2018-12-06T19:26:38.841Z,86.48
2018-12-06T19:29:06.277Z,86.81
2018-12-06T19:31:33.741Z,86.46
2018-12-06T19:34:01.195Z,86.50
2018-12-06T19:36:28.650Z,86.41
2018-12-06T19:38:56.101Z,86.19
2018-12-06T19:41:23.564Z,86.28
2018-12-06T19:43:50.990Z,86.35
2018-12-06T19:46:18.464Z,86.52
2018-12-06T19:48:45.941Z,86.27
2018-12-06T19:51:13.386Z,86.72
2018-12-06T19:53:40.826Z,86.92
2018-12-06T19:56:08.308Z,86.28
2018-12-06T19:58:35.887Z,86.33
2018-12-06T20:03:56.811Z,86.20
2018-12-06T20:06:30.852Z,86.07
2018-12-06T20:09:02.427Z,85.72
2018-12-06T20:11:29.902Z,86.24
2018-12-06T20:13:57.370Z,86.32
2018-12-06T20:16:24.831Z,86.46
2018-12-06T20:19:10.246Z,86.18
2018-12-06T20:21:37.709Z,86.21
2018-12-06T20:24:05.154Z,86.34
2018-12-06T20:26:32.581Z,86.44
2018-12-06T20:31:56.067Z,86.32
2018-12-06T20:34:23.709Z,86.07
2018-12-06T20:36:51.136Z,86.60
2018-12-06T20:39:20.448Z,86.78
2018-12-06T20:41:47.892Z,86.71
2018-12-06T20:47:13.864Z,86.69
2018-12-06T20:49:41.325Z,86.63
2018-12-06T20:52:08.802Z,86.73
2018-12-06T20:54:36.346Z,86.54
2018-12-06T20:57:03.899Z,86.73
2018-12-06T20:59:31.400Z,86.63
2018-12-06T21:01:58.826Z,86.76
2018-12-06T21:04:27.232Z,87.02
2018-12-06T21:06:54.669Z,86.91
2018-12-06T21:09:22.986Z,86.48
2018-12-06T21:11:50.425Z,87.11
2018-12-06T21:14:22.089Z,86.18
2018-12-06T21:16:47.303Z,86.45
2018-12-06T21:19:14.912Z,86.46
2018-12-06T21:21:42.400Z,85.89
2018-12-06T21:24:11.757Z,86.18
2018-12-06T21:26:39.227Z,86.17
2018-12-06T21:29:09.737Z,86.25
2018-12-06T21:31:37.188Z,86.52
2018-12-06T21:34:04.653Z,86.22
2018-12-06T21:36:32.219Z,85.89
2018-12-06T21:38:59.679Z,86.02
2018-12-06T21:41:27.152Z,85.72
2018-12-06T21:47:01.114Z,85.81
2018-12-06T21:49:28.818Z,85.64
2018-12-06T21:51:56.271Z,85.96
2018-12-06T21:54:27.757Z,86.07
2018-12-06T21:56:55.218Z,86.12
2018-12-06T21:59:22.684Z,85.98
2018-12-06T22:01:54.119Z,85.84
2018-12-06T22:04:26.427Z,86.55
2018-12-06T22:06:53.872Z,87.29
2018-12-06T22:09:21.331Z,87.78
2018-12-06T22:11:50.832Z,87.83
2018-12-06T22:14:23.131Z,88.21
2018-12-06T22:16:50.583Z,88.55
2018-12-06T22:22:33.814Z,89.12
2018-12-06T22:25:01.349Z,89.63
2018-12-06T22:27:28.837Z,90.07
2018-12-06T22:29:56.394Z,90.07
2018-12-06T22:32:23.908Z,90.57
2018-12-06T22:34:52.256Z,90.39
2018-12-06T22:37:19.930Z,90.87
2018-12-06T22:39:47.382Z,91.03
2018-12-06T22:42:18.891Z,90.78
2018-12-06T22:44:48.403Z,91.23
2018-12-06T22:47:17.865Z,91.40
2018-12-06T22:49:45.347Z,90.81
2018-12-06T22:52:12.956Z,90.53
2018-12-06T22:54:40.478Z,90.26
2018-12-06T22:57:07.908Z,90.32
2018-12-06T22:59:35.377Z,89.74
2018-12-06T23:02:03.115Z,89.56
2018-12-06T23:04:33.489Z,89.55
2018-12-06T23:07:00.957Z,88.75
2018-12-06T23:09:28.471Z,88.46
2018-12-06T23:11:55.910Z,88.24
2018-12-06T23:14:27.379Z,88.50
2018-12-06T23:16:58.927Z,88.41
2018-12-06T23:19:30.377Z,88.32
2018-12-06T23:21:57.793Z,88.10
2018-12-06T23:24:25.265Z,87.91
2018-12-06T23:26:52.726Z,87.52
2018-12-06T23:29:20.159Z,87.60
2018-12-06T23:31:47.616Z,87.08
2018-12-06T23:34:15.018Z,87.25
2018-12-06T23:36:42.549Z,86.76
2018-12-06T23:39:09.979Z,86.59
2018-12-06T23:41:37.424Z,86.59
2018-12-06T23:44:06.792Z,86.62
2018-12-06T23:46:34.247Z,86.23
2018-12-06T23:49:01.779Z,86.06
2018-12-06T23:51:38.499Z,86.19
2018-12-06T23:54:05.942Z,85.87
2018-12-06T23:56:33.531Z,86.09
2018-12-06T23:59:01.039Z,86.01
